sensor_id;sensor_type;location;lat;lon;timestamp;P1;durP1;ratioP1;P2;durP2;ratioP2
71888;SDS011;59762;49.998;14.858;2023-03-03T00:01:17;11.85;;;6.32;;
71888;SDS011;59762;49.998;14.858;2023-03-03T00:03:43;10.38;;;5.65;;
71888;SDS011;59762;49.998;14.858;2023-03-03T00:06:10;7.05;;;4.93;;
71888;SDS011;59762;49.998;14.858;2023-03-03T00:08:36;12.35;;;4.95;;
71888;SDS011;59762;49.998;14.858;2023-03-03T00:11:01;14.07;;;7.65;;
71888;SDS011;59762;49.998;14.858;2023-03-03T00:13:30;18.15;;;5.20;;
71888;SDS011;59762;49.998;14.858;2023-03-03T00:16:41;13.40;;;6.65;;
71888;SDS011;59762;49.998;14.858;2023-03-03T00:18:43;16.15;;;6.78;;
71888;SDS011;59762;49.998;14.858;2023-03-03T00:23:54;18.02;;;6.30;;
71888;SDS011;59762;49.998;14.858;2023-03-03T00:26:24;22.42;;;7.72;;
71888;SDS011;59762;49.998;14.858;2023-03-03T00:28:51;17.50;;;8.23;;
71888;SDS011;59762;49.998;14.858;2023-03-03T00:31:28;11.77;;;6.70;;
71888;SDS011;59762;49.998;14.858;2023-03-03T00:33:55;14.27;;;7.10;;
71888;SDS011;59762;49.998;14.858;2023-03-03T00:36:24;12.07;;;5.28;;
71888;SDS011;59762;49.998;14.858;2023-03-03T00:38:56;10.25;;;6.13;;
71888;SDS011;59762;49.998;14.858;2023-03-03T00:41:24;11.55;;;7.30;;
71888;SDS011;59762;49.998;14.858;2023-03-03T00:43:50;15.63;;;6.15;;
71888;SDS011;59762;49.998;14.858;2023-03-03T00:46:20;15.52;;;6.30;;
71888;SDS011;59762;49.998;14.858;2023-03-03T00:48:46;18.13;;;7.60;;
71888;SDS011;59762;49.998;14.858;2023-03-03T00:53:43;15.30;;;4.90;;
71888;SDS011;59762;49.998;14.858;2023-03-03T00:56:09;16.02;;;6.13;;
71888;SDS011;59762;49.998;14.858;2023-03-03T00:58:34;15.55;;;6.20;;
71888;SDS011;59762;49.998;14.858;2023-03-03T01:01:00;12.05;;;6.20;;
71888;SDS011;59762;49.998;14.858;2023-03-03T01:03:26;13.38;;;8.10;;
71888;SDS011;59762;49.998;14.858;2023-03-03T01:05:52;10.20;;;5.80;;
71888;SDS011;59762;49.998;14.858;2023-03-03T01:08:17;15.40;;;7.00;;
71888;SDS011;59762;49.998;14.858;2023-03-03T01:10:48;18.00;;;7.25;;
71888;SDS011;59762;49.998;14.858;2023-03-03T01:13:17;21.70;;;8.07;;
71888;SDS011;59762;49.998;14.858;2023-03-03T01:15:44;15.20;;;5.78;;
71888;SDS011;59762;49.998;14.858;2023-03-03T01:18:10;9.70;;;7.07;;
71888;SDS011;59762;49.998;14.858;2023-03-03T01:20:36;17.42;;;6.63;;
71888;SDS011;59762;49.998;14.858;2023-03-03T01:23:02;24.80;;;7.30;;
71888;SDS011;59762;49.998;14.858;2023-03-03T01:25:27;27.85;;;12.43;;
71888;SDS011;59762;49.998;14.858;2023-03-03T01:27:53;19.02;;;7.78;;
71888;SDS011;59762;49.998;14.858;2023-03-03T01:30:18;5.72;;;4.63;;
71888;SDS011;59762;49.998;14.858;2023-03-03T01:32:44;11.70;;;7.55;;
71888;SDS011;59762;49.998;14.858;2023-03-03T01:35:10;25.05;;;9.13;;
71888;SDS011;59762;49.998;14.858;2023-03-03T01:37:35;28.67;;;12.50;;
71888;SDS011;59762;49.998;14.858;2023-03-03T01:40:02;36.60;;;13.93;;
71888;SDS011;59762;49.998;14.858;2023-03-03T01:42:28;33.20;;;12.80;;
71888;SDS011;59762;49.998;14.858;2023-03-03T01:47:38;15.85;;;7.80;;
71888;SDS011;59762;49.998;14.858;2023-03-03T01:50:08;26.73;;;11.02;;
71888;SDS011;59762;49.998;14.858;2023-03-03T01:52:36;32.13;;;9.88;;
71888;SDS011;59762;49.998;14.858;2023-03-03T01:55:16;30.38;;;10.68;;
71888;SDS011;59762;49.998;14.858;2023-03-03T01:57:47;34.17;;;9.43;;
71888;SDS011;59762;49.998;14.858;2023-03-03T02:00:13;16.95;;;7.90;;
71888;SDS011;59762;49.998;14.858;2023-03-03T02:02:39;10.60;;;6.32;;
71888;SDS011;59762;49.998;14.858;2023-03-03T02:05:05;22.65;;;7.85;;
71888;SDS011;59762;49.998;14.858;2023-03-03T02:07:31;11.45;;;7.55;;
71888;SDS011;59762;49.998;14.858;2023-03-03T02:10:04;22.63;;;9.48;;
71888;SDS011;59762;49.998;14.858;2023-03-03T02:12:35;27.77;;;12.40;;
71888;SDS011;59762;49.998;14.858;2023-03-03T02:15:10;27.27;;;9.25;;
71888;SDS011;59762;49.998;14.858;2023-03-03T02:17:39;25.63;;;8.73;;
71888;SDS011;59762;49.998;14.858;2023-03-03T02:20:12;13.57;;;8.68;;
71888;SDS011;59762;49.998;14.858;2023-03-03T02:23:02;18.95;;;7.25;;
71888;SDS011;59762;49.998;14.858;2023-03-03T02:25:27;32.10;;;10.75;;
71888;SDS011;59762;49.998;14.858;2023-03-03T02:27:54;32.63;;;11.40;;
71888;SDS011;59762;49.998;14.858;2023-03-03T02:30:22;17.17;;;12.15;;
71888;SDS011;59762;49.998;14.858;2023-03-03T02:32:47;21.23;;;9.25;;
71888;SDS011;59762;49.998;14.858;2023-03-03T02:35:47;10.18;;;6.68;;
71888;SDS011;59762;49.998;14.858;2023-03-03T02:40:32;14.63;;;6.93;;
71888;SDS011;59762;49.998;14.858;2023-03-03T02:42:58;18.10;;;6.00;;
71888;SDS011;59762;49.998;14.858;2023-03-03T02:45:26;10.38;;;6.47;;
71888;SDS011;59762;49.998;14.858;2023-03-03T02:47:51;9.93;;;5.18;;
71888;SDS011;59762;49.998;14.858;2023-03-03T02:50:17;18.60;;;5.68;;
71888;SDS011;59762;49.998;14.858;2023-03-03T02:52:42;6.25;;;5.15;;
71888;SDS011;59762;49.998;14.858;2023-03-03T02:55:08;13.18;;;6.30;;
71888;SDS011;59762;49.998;14.858;2023-03-03T02:57:33;14.15;;;6.60;;
71888;SDS011;59762;49.998;14.858;2023-03-03T02:59:59;11.00;;;7.63;;
71888;SDS011;59762;49.998;14.858;2023-03-03T03:02:24;16.63;;;7.47;;
71888;SDS011;59762;49.998;14.858;2023-03-03T03:04:51;16.35;;;7.07;;
71888;SDS011;59762;49.998;14.858;2023-03-03T03:07:17;12.55;;;4.78;;
71888;SDS011;59762;49.998;14.858;2023-03-03T03:09:42;12.73;;;5.85;;
71888;SDS011;59762;49.998;14.858;2023-03-03T03:12:08;16.40;;;5.22;;
71888;SDS011;59762;49.998;14.858;2023-03-03T03:14:34;15.35;;;5.38;;
71888;SDS011;59762;49.998;14.858;2023-03-03T03:16:59;12.10;;;5.88;;
71888;SDS011;59762;49.998;14.858;2023-03-03T03:19:26;9.57;;;5.05;;
71888;SDS011;59762;49.998;14.858;2023-03-03T03:21:52;10.27;;;5.53;;
71888;SDS011;59762;49.998;14.858;2023-03-03T03:24:17;8.40;;;2.97;;
71888;SDS011;59762;49.998;14.858;2023-03-03T03:26:43;14.25;;;5.32;;
71888;SDS011;59762;49.998;14.858;2023-03-03T03:29:09;11.98;;;4.00;;
71888;SDS011;59762;49.998;14.858;2023-03-03T03:31:35;15.50;;;6.70;;
71888;SDS011;59762;49.998;14.858;2023-03-03T03:34:00;10.50;;;5.50;;
71888;SDS011;59762;49.998;14.858;2023-03-03T03:36:26;7.45;;;5.53;;
71888;SDS011;59762;49.998;14.858;2023-03-03T03:38:52;11.45;;;6.15;;
71888;SDS011;59762;49.998;14.858;2023-03-03T03:41:18;10.43;;;6.20;;
71888;SDS011;59762;49.998;14.858;2023-03-03T03:43:43;8.40;;;4.93;;
71888;SDS011;59762;49.998;14.858;2023-03-03T03:46:09;13.88;;;6.45;;
71888;SDS011;59762;49.998;14.858;2023-03-03T03:48:35;9.15;;;4.13;;
71888;SDS011;59762;49.998;14.858;2023-03-03T03:51:00;12.40;;;5.25;;
71888;SDS011;59762;49.998;14.858;2023-03-03T03:53:26;16.55;;;7.30;;
71888;SDS011;59762;49.998;14.858;2023-03-03T03:55:51;11.02;;;6.35;;
71888;SDS011;59762;49.998;14.858;2023-03-03T03:58:17;17.80;;;6.72;;
71888;SDS011;59762;49.998;14.858;2023-03-03T04:00:43;19.73;;;7.68;;
71888;SDS011;59762;49.998;14.858;2023-03-03T04:03:09;12.70;;;4.80;;
71888;SDS011;59762;49.998;14.858;2023-03-03T04:05:35;13.07;;;7.50;;
71888;SDS011;59762;49.998;14.858;2023-03-03T04:08:00;11.20;;;6.82;;
71888;SDS011;59762;49.998;14.858;2023-03-03T04:10:26;11.57;;;7.00;;
71888;SDS011;59762;49.998;14.858;2023-03-03T04:12:51;17.17;;;7.38;;
71888;SDS011;59762;49.998;14.858;2023-03-03T04:15:17;13.00;;;6.95;;
71888;SDS011;59762;49.998;14.858;2023-03-03T04:17:42;18.15;;;6.22;;
71888;SDS011;59762;49.998;14.858;2023-03-03T04:20:09;17.88;;;8.57;;
71888;SDS011;59762;49.998;14.858;2023-03-03T04:22:35;10.75;;;5.35;;
71888;SDS011;59762;49.998;14.858;2023-03-03T04:25:03;18.30;;;9.82;;
71888;SDS011;59762;49.998;14.858;2023-03-03T04:27:30;23.52;;;10.30;;
71888;SDS011;59762;49.998;14.858;2023-03-03T04:29:56;24.73;;;10.18;;
71888;SDS011;59762;49.998;14.858;2023-03-03T04:32:21;36.20;;;16.73;;
71888;SDS011;59762;49.998;14.858;2023-03-03T04:34:47;24.27;;;9.60;;
71888;SDS011;59762;49.998;14.858;2023-03-03T04:37:12;23.48;;;8.50;;
71888;SDS011;59762;49.998;14.858;2023-03-03T04:39:38;34.55;;;8.65;;
71888;SDS011;59762;49.998;14.858;2023-03-03T04:42:03;16.15;;;6.82;;
71888;SDS011;59762;49.998;14.858;2023-03-03T04:44:29;22.17;;;5.93;;
71888;SDS011;59762;49.998;14.858;2023-03-03T04:46:54;15.23;;;7.20;;
71888;SDS011;59762;49.998;14.858;2023-03-03T04:49:20;17.50;;;7.32;;
71888;SDS011;59762;49.998;14.858;2023-03-03T04:51:45;8.60;;;5.85;;
71888;SDS011;59762;49.998;14.858;2023-03-03T04:54:11;7.78;;;3.78;;
71888;SDS011;59762;49.998;14.858;2023-03-03T04:56:36;11.18;;;6.18;;
71888;SDS011;59762;49.998;14.858;2023-03-03T04:59:02;10.63;;;5.85;;
71888;SDS011;59762;49.998;14.858;2023-03-03T05:01:27;11.10;;;7.18;;
71888;SDS011;59762;49.998;14.858;2023-03-03T05:03:53;9.27;;;5.82;;
71888;SDS011;59762;49.998;14.858;2023-03-03T05:06:18;14.32;;;6.10;;
71888;SDS011;59762;49.998;14.858;2023-03-03T05:08:44;11.23;;;6.22;;
71888;SDS011;59762;49.998;14.858;2023-03-03T05:11:10;6.13;;;3.92;;
71888;SDS011;59762;49.998;14.858;2023-03-03T05:13:35;17.40;;;7.28;;
71888;SDS011;59762;49.998;14.858;2023-03-03T05:16:01;11.45;;;7.03;;
71888;SDS011;59762;49.998;14.858;2023-03-03T05:18:26;9.07;;;5.07;;
71888;SDS011;59762;49.998;14.858;2023-03-03T05:20:52;15.25;;;6.82;;
71888;SDS011;59762;49.998;14.858;2023-03-03T05:23:18;7.38;;;4.80;;
71888;SDS011;59762;49.998;14.858;2023-03-03T05:25:44;10.05;;;6.18;;
71888;SDS011;59762;49.998;14.858;2023-03-03T05:28:10;6.43;;;4.80;;
71888;SDS011;59762;49.998;14.858;2023-03-03T05:30:36;8.55;;;6.03;;
71888;SDS011;59762;49.998;14.858;2023-03-03T05:33:02;10.82;;;7.43;;
71888;SDS011;59762;49.998;14.858;2023-03-03T05:35:28;27.15;;;7.80;;
71888;SDS011;59762;49.998;14.858;2023-03-03T05:37:54;8.98;;;5.38;;
71888;SDS011;59762;49.998;14.858;2023-03-03T05:40:20;20.15;;;7.43;;
71888;SDS011;59762;49.998;14.858;2023-03-03T05:42:45;11.50;;;5.97;;
71888;SDS011;59762;49.998;14.858;2023-03-03T05:45:11;9.65;;;3.28;;
71888;SDS011;59762;49.998;14.858;2023-03-03T05:47:37;10.30;;;6.45;;
71888;SDS011;59762;49.998;14.858;2023-03-03T05:50:03;7.50;;;4.93;;
71888;SDS011;59762;49.998;14.858;2023-03-03T05:52:29;20.95;;;7.57;;
71888;SDS011;59762;49.998;14.858;2023-03-03T05:54:54;8.10;;;3.55;;
71888;SDS011;59762;49.998;14.858;2023-03-03T05:57:20;15.18;;;6.72;;
71888;SDS011;59762;49.998;14.858;2023-03-03T05:59:45;12.15;;;5.95;;
71888;SDS011;59762;49.998;14.858;2023-03-03T06:02:10;5.20;;;4.45;;
71888;SDS011;59762;49.998;14.858;2023-03-03T06:04:36;6.80;;;4.65;;
71888;SDS011;59762;49.998;14.858;2023-03-03T06:07:01;11.00;;;5.55;;
71888;SDS011;59762;49.998;14.858;2023-03-03T06:09:27;15.65;;;4.78;;
71888;SDS011;59762;49.998;14.858;2023-03-03T06:11:53;9.38;;;4.45;;
71888;SDS011;59762;49.998;14.858;2023-03-03T06:14:19;9.65;;;5.28;;
71888;SDS011;59762;49.998;14.858;2023-03-03T06:16:45;10.20;;;6.70;;
71888;SDS011;59762;49.998;14.858;2023-03-03T06:19:11;17.42;;;6.75;;
71888;SDS011;59762;49.998;14.858;2023-03-03T06:21:36;6.25;;;4.10;;
71888;SDS011;59762;49.998;14.858;2023-03-03T06:24:02;13.93;;;4.35;;
71888;SDS011;59762;49.998;14.858;2023-03-03T06:26:27;15.13;;;5.32;;
71888;SDS011;59762;49.998;14.858;2023-03-03T06:28:53;4.88;;;4.38;;
71888;SDS011;59762;49.998;14.858;2023-03-03T06:31:19;12.68;;;5.80;;
71888;SDS011;59762;49.998;14.858;2023-03-03T06:33:45;8.80;;;6.32;;
71888;SDS011;59762;49.998;14.858;2023-03-03T06:36:10;7.93;;;5.10;;
71888;SDS011;59762;49.998;14.858;2023-03-03T06:38:36;10.65;;;6.05;;
71888;SDS011;59762;49.998;14.858;2023-03-03T06:41:02;14.13;;;7.00;;
71888;SDS011;59762;49.998;14.858;2023-03-03T06:43:34;7.55;;;4.88;;
71888;SDS011;59762;49.998;14.858;2023-03-03T06:46:00;9.82;;;6.65;;
71888;SDS011;59762;49.998;14.858;2023-03-03T06:48:26;15.95;;;6.10;;
71888;SDS011;59762;49.998;14.858;2023-03-03T06:50:51;12.43;;;5.28;;
71888;SDS011;59762;49.998;14.858;2023-03-03T06:53:17;5.13;;;4.60;;
71888;SDS011;59762;49.998;14.858;2023-03-03T06:55:43;8.10;;;6.82;;
71888;SDS011;59762;49.998;14.858;2023-03-03T06:58:11;12.70;;;6.78;;
71888;SDS011;59762;49.998;14.858;2023-03-03T07:00:37;11.90;;;8.07;;
71888;SDS011;59762;49.998;14.858;2023-03-03T07:03:13;14.43;;;8.98;;
71888;SDS011;59762;49.998;14.858;2023-03-03T07:05:39;11.43;;;6.68;;
71888;SDS011;59762;49.998;14.858;2023-03-03T07:08:15;8.80;;;4.95;;
71888;SDS011;59762;49.998;14.858;2023-03-03T07:10:41;17.77;;;7.70;;
71888;SDS011;59762;49.998;14.858;2023-03-03T07:15:40;14.32;;;7.50;;
71888;SDS011;59762;49.998;14.858;2023-03-03T07:18:16;24.63;;;8.02;;
71888;SDS011;59762;49.998;14.858;2023-03-03T07:20:46;14.98;;;7.65;;
71888;SDS011;59762;49.998;14.858;2023-03-03T07:25:49;20.92;;;7.15;;
71888;SDS011;59762;49.998;14.858;2023-03-03T07:30:40;16.58;;;8.32;;
71888;SDS011;59762;49.998;14.858;2023-03-03T07:33:07;29.40;;;12.27;;
71888;SDS011;59762;49.998;14.858;2023-03-03T07:35:43;10.82;;;7.45;;
71888;SDS011;59762;49.998;14.858;2023-03-03T07:40:41;12.88;;;6.00;;
71888;SDS011;59762;49.998;14.858;2023-03-03T07:43:18;18.50;;;9.73;;
71888;SDS011;59762;49.998;14.858;2023-03-03T07:45:46;14.75;;;7.93;;
71888;SDS011;59762;49.998;14.858;2023-03-03T07:50:37;12.88;;;7.63;;
71888;SDS011;59762;49.998;14.858;2023-03-03T07:53:05;13.32;;;8.52;;
71888;SDS011;59762;49.998;14.858;2023-03-03T07:55:37;9.68;;;7.25;;
71888;SDS011;59762;49.998;14.858;2023-03-03T08:03:16;14.45;;;5.93;;
71888;SDS011;59762;49.998;14.858;2023-03-03T08:05:43;15.50;;;7.97;;
71888;SDS011;59762;49.998;14.858;2023-03-03T08:10:59;25.13;;;10.20;;
71888;SDS011;59762;49.998;14.858;2023-03-03T08:18:29;14.52;;;7.07;;
71888;SDS011;59762;49.998;14.858;2023-03-03T08:20:56;22.58;;;8.20;;
71888;SDS011;59762;49.998;14.858;2023-03-03T08:23:22;31.17;;;9.65;;
71888;SDS011;59762;49.998;14.858;2023-03-03T08:25:48;16.52;;;12.10;;
71888;SDS011;59762;49.998;14.858;2023-03-03T08:28:14;19.83;;;6.63;;
71888;SDS011;59762;49.998;14.858;2023-03-03T08:30:40;14.02;;;7.15;;
71888;SDS011;59762;49.998;14.858;2023-03-03T08:33:05;20.42;;;8.98;;
71888;SDS011;59762;49.998;14.858;2023-03-03T08:35:31;15.30;;;9.52;;
71888;SDS011;59762;49.998;14.858;2023-03-03T08:37:57;21.30;;;8.25;;
71888;SDS011;59762;49.998;14.858;2023-03-03T08:40:22;10.32;;;7.32;;
71888;SDS011;59762;49.998;14.858;2023-03-03T08:42:48;27.70;;;10.32;;
71888;SDS011;59762;49.998;14.858;2023-03-03T08:45:14;9.50;;;6.03;;
71888;SDS011;59762;49.998;14.858;2023-03-03T08:47:40;15.10;;;9.68;;
71888;SDS011;59762;49.998;14.858;2023-03-03T08:50:07;16.38;;;9.85;;
71888;SDS011;59762;49.998;14.858;2023-03-03T08:52:33;12.27;;;7.25;;
71888;SDS011;59762;49.998;14.858;2023-03-03T08:54:58;17.70;;;9.95;;
71888;SDS011;59762;49.998;14.858;2023-03-03T08:57:24;12.38;;;8.07;;
71888;SDS011;59762;49.998;14.858;2023-03-03T08:59:49;22.17;;;8.40;;
71888;SDS011;59762;49.998;14.858;2023-03-03T09:02:15;11.20;;;7.18;;
71888;SDS011;59762;49.998;14.858;2023-03-03T09:04:41;16.73;;;6.57;;
71888;SDS011;59762;49.998;14.858;2023-03-03T09:07:07;12.75;;;7.38;;
71888;SDS011;59762;49.998;14.858;2023-03-03T09:09:32;9.57;;;6.65;;
71888;SDS011;59762;49.998;14.858;2023-03-03T09:11:58;22.30;;;9.13;;
71888;SDS011;59762;49.998;14.858;2023-03-03T09:14:27;11.00;;;6.28;;
71888;SDS011;59762;49.998;14.858;2023-03-03T09:16:53;13.93;;;8.57;;
71888;SDS011;59762;49.998;14.858;2023-03-03T09:21:45;18.35;;;8.57;;
71888;SDS011;59762;49.998;14.858;2023-03-03T09:24:23;22.27;;;9.57;;
71888;SDS011;59762;49.998;14.858;2023-03-03T09:26:49;10.18;;;9.07;;
71888;SDS011;59762;49.998;14.858;2023-03-03T09:31:49;17.67;;;8.15;;
71888;SDS011;59762;49.998;14.858;2023-03-03T09:34:36;12.10;;;7.00;;
71888;SDS011;59762;49.998;14.858;2023-03-03T09:37:14;14.23;;;8.32;;
71888;SDS011;59762;49.998;14.858;2023-03-03T09:39:40;16.92;;;8.18;;
71888;SDS011;59762;49.998;14.858;2023-03-03T09:52:20;21.02;;;9.10;;
71888;SDS011;59762;49.998;14.858;2023-03-03T09:57:17;10.57;;;7.45;;
71888;SDS011;59762;49.998;14.858;2023-03-03T09:59:50;10.18;;;5.05;;
71888;SDS011;59762;49.998;14.858;2023-03-03T10:02:37;18.13;;;7.28;;
71888;SDS011;59762;49.998;14.858;2023-03-03T10:07:54;10.05;;;5.50;;
71888;SDS011;59762;49.998;14.858;2023-03-03T10:13:19;11.90;;;6.10;;
71888;SDS011;59762;49.998;14.858;2023-03-03T10:18:29;19.60;;;6.82;;
71888;SDS011;59762;49.998;14.858;2023-03-03T10:36:13;8.05;;;5.00;;
71888;SDS011;59762;49.998;14.858;2023-03-03T10:41:24;9.02;;;4.38;;
71888;SDS011;59762;49.998;14.858;2023-03-03T10:52:17;8.98;;;4.18;;
71888;SDS011;59762;49.998;14.858;2023-03-03T10:57:21;11.88;;;5.05;;
71888;SDS011;59762;49.998;14.858;2023-03-03T10:59:52;9.38;;;4.82;;
71888;SDS011;59762;49.998;14.858;2023-03-03T11:07:43;7.75;;;5.18;;
71888;SDS011;59762;49.998;14.858;2023-03-03T11:10:14;6.30;;;4.78;;
71888;SDS011;59762;49.998;14.858;2023-03-03T11:23:14;11.15;;;4.20;;
71888;SDS011;59762;49.998;14.858;2023-03-03T11:28:55;6.53;;;3.38;;
71888;SDS011;59762;49.998;14.858;2023-03-03T11:31:20;7.47;;;6.13;;
71888;SDS011;59762;49.998;14.858;2023-03-03T11:38:46;9.57;;;4.45;;
71888;SDS011;59762;49.998;14.858;2023-03-03T11:43:46;6.18;;;4.28;;
71888;SDS011;59762;49.998;14.858;2023-03-03T11:46:14;7.95;;;3.55;;
71888;SDS011;59762;49.998;14.858;2023-03-03T11:53:56;9.23;;;4.15;;
71888;SDS011;59762;49.998;14.858;2023-03-03T12:06:20;9.02;;;4.13;;
71888;SDS011;59762;49.998;14.858;2023-03-03T12:09:00;5.95;;;2.70;;
71888;SDS011;59762;49.998;14.858;2023-03-03T12:17:05;4.60;;;3.47;;
71888;SDS011;59762;49.998;14.858;2023-03-03T12:22:18;4.63;;;3.40;;
71888;SDS011;59762;49.998;14.858;2023-03-03T12:24:54;5.22;;;3.05;;
71888;SDS011;59762;49.998;14.858;2023-03-03T12:32:37;10.73;;;2.78;;
71888;SDS011;59762;49.998;14.858;2023-03-03T12:35:13;6.63;;;3.33;;
71888;SDS011;59762;49.998;14.858;2023-03-03T12:40:32;2.53;;;1.95;;
71888;SDS011;59762;49.998;14.858;2023-03-03T12:45:46;5.50;;;2.83;;
71888;SDS011;59762;49.998;14.858;2023-03-03T12:48:15;2.17;;;1.98;;
71888;SDS011;59762;49.998;14.858;2023-03-03T13:03:16;3.50;;;3.20;;
71888;SDS011;59762;49.998;14.858;2023-03-03T13:05:56;2.13;;;1.65;;
71888;SDS011;59762;49.998;14.858;2023-03-03T13:08:32;6.50;;;3.97;;
71888;SDS011;59762;49.998;14.858;2023-03-03T13:13:42;6.97;;;2.85;;
71888;SDS011;59762;49.998;14.858;2023-03-03T13:16:13;5.70;;;2.58;;
71888;SDS011;59762;49.998;14.858;2023-03-03T13:21:08;2.63;;;1.98;;
71888;SDS011;59762;49.998;14.858;2023-03-03T13:23:45;7.53;;;2.15;;
71888;SDS011;59762;49.998;14.858;2023-03-03T13:28:48;5.75;;;3.63;;
71888;SDS011;59762;49.998;14.858;2023-03-03T13:33:43;5.18;;;2.90;;
71888;SDS011;59762;49.998;14.858;2023-03-03T13:36:14;5.85;;;3.10;;
71888;SDS011;59762;49.998;14.858;2023-03-03T13:41:27;4.00;;;1.98;;
71888;SDS011;59762;49.998;14.858;2023-03-03T13:43:58;5.93;;;2.75;;
71888;SDS011;59762;49.998;14.858;2023-03-03T13:51:47;2.85;;;1.77;;
71888;SDS011;59762;49.998;14.858;2023-03-03T14:07:07;3.30;;;2.10;;
71888;SDS011;59762;49.998;14.858;2023-03-03T14:14:56;5.95;;;3.13;;
71888;SDS011;59762;49.998;14.858;2023-03-03T14:17:47;6.72;;;3.38;;
71888;SDS011;59762;49.998;14.858;2023-03-03T14:20:23;1.95;;;1.67;;
71888;SDS011;59762;49.998;14.858;2023-03-03T14:22:53;5.32;;;2.70;;
71888;SDS011;59762;49.998;14.858;2023-03-03T14:25:19;2.83;;;1.35;;
71888;SDS011;59762;49.998;14.858;2023-03-03T14:35:41;2.05;;;1.48;;
71888;SDS011;59762;49.998;14.858;2023-03-03T14:40:33;9.15;;;2.75;;
71888;SDS011;59762;49.998;14.858;2023-03-03T14:43:00;4.13;;;2.83;;
71888;SDS011;59762;49.998;14.858;2023-03-03T14:47:52;7.88;;;2.47;;
71888;SDS011;59762;49.998;14.858;2023-03-03T14:50:31;2.85;;;1.45;;
71888;SDS011;59762;49.998;14.858;2023-03-03T14:55:32;8.32;;;2.90;;
71888;SDS011;59762;49.998;14.858;2023-03-03T14:57:59;7.80;;;2.92;;
71888;SDS011;59762;49.998;14.858;2023-03-03T15:00:32;4.18;;;2.35;;
71888;SDS011;59762;49.998;14.858;2023-03-03T15:03:01;1.95;;;1.58;;
71888;SDS011;59762;49.998;14.858;2023-03-03T15:05:29;7.47;;;2.83;;
71888;SDS011;59762;49.998;14.858;2023-03-03T15:10:40;4.50;;;1.48;;
71888;SDS011;59762;49.998;14.858;2023-03-03T15:13:11;6.45;;;2.40;;
71888;SDS011;59762;49.998;14.858;2023-03-03T15:18:16;4.75;;;1.38;;
71888;SDS011;59762;49.998;14.858;2023-03-03T15:33:14;2.25;;;1.90;;
71888;SDS011;59762;49.998;14.858;2023-03-03T15:43:33;2.13;;;1.58;;
71888;SDS011;59762;49.998;14.858;2023-03-03T15:59:00;3.92;;;2.13;;
71888;SDS011;59762;49.998;14.858;2023-03-03T16:01:31;2.75;;;1.80;;
71888;SDS011;59762;49.998;14.858;2023-03-03T16:03:57;2.00;;;1.38;;
71888;SDS011;59762;49.998;14.858;2023-03-03T16:09:07;4.95;;;3.05;;
71888;SDS011;59762;49.998;14.858;2023-03-03T16:11:41;4.78;;;2.50;;
71888;SDS011;59762;49.998;14.858;2023-03-03T16:14:17;2.97;;;1.23;;
71888;SDS011;59762;49.998;14.858;2023-03-03T16:17:07;2.15;;;1.40;;
71888;SDS011;59762;49.998;14.858;2023-03-03T16:28:59;2.53;;;1.50;;
71888;SDS011;59762;49.998;14.858;2023-03-03T16:33:40;4.75;;;2.03;;
71888;SDS011;59762;49.998;14.858;2023-03-03T16:41:12;1.55;;;1.45;;
71888;SDS011;59762;49.998;14.858;2023-03-03T16:51:33;1.67;;;1.05;;
71888;SDS011;59762;49.998;14.858;2023-03-03T16:56:50;7.10;;;1.83;;
71888;SDS011;59762;49.998;14.858;2023-03-03T16:59:24;3.60;;;1.95;;
71888;SDS011;59762;49.998;14.858;2023-03-03T17:04:39;2.33;;;2.13;;
71888;SDS011;59762;49.998;14.858;2023-03-03T17:10:02;1.20;;;1.17;;
71888;SDS011;59762;49.998;14.858;2023-03-03T17:12:53;2.15;;;1.65;;
71888;SDS011;59762;49.998;14.858;2023-03-03T17:20:36;1.52;;;1.38;;
71888;SDS011;59762;49.998;14.858;2023-03-03T17:25:41;1.55;;;1.02;;
71888;SDS011;59762;49.998;14.858;2023-03-03T17:43:40;2.20;;;1.10;;
71888;SDS011;59762;49.998;14.858;2023-03-03T17:46:24;2.28;;;1.77;;
71888;SDS011;59762;49.998;14.858;2023-03-03T17:52:20;4.68;;;1.50;;
71888;SDS011;59762;49.998;14.858;2023-03-03T17:57:07;3.75;;;1.48;;
71888;SDS011;59762;49.998;14.858;2023-03-03T18:17:49;4.20;;;1.40;;
71888;SDS011;59762;49.998;14.858;2023-03-03T18:25:11;3.20;;;1.30;;
71888;SDS011;59762;49.998;14.858;2023-03-03T18:27:38;6.55;;;2.08;;
71888;SDS011;59762;49.998;14.858;2023-03-03T18:35:26;1.90;;;1.58;;
71888;SDS011;59762;49.998;14.858;2023-03-03T18:37:55;5.55;;;2.35;;
71888;SDS011;59762;49.998;14.858;2023-03-03T18:42:46;2.55;;;1.70;;
71888;SDS011;59762;49.998;14.858;2023-03-03T18:50:42;1.73;;;1.58;;
71888;SDS011;59762;49.998;14.858;2023-03-03T18:53:12;4.90;;;2.92;;
71888;SDS011;59762;49.998;14.858;2023-03-03T18:55:39;3.35;;;2.35;;
71888;SDS011;59762;49.998;14.858;2023-03-03T19:00:41;5.32;;;2.08;;
71888;SDS011;59762;49.998;14.858;2023-03-03T19:03:07;8.77;;;2.30;;
71888;SDS011;59762;49.998;14.858;2023-03-03T19:05:48;1.75;;;0.98;;
